sensor_id;sensor_type;location;lat;lon;timestamp;temperature;humidity
51853;DHT22;37894;53.172;6.598;2022-12-10T00:01:16;-1.70;99.90
51853;DHT22;37894;53.172;6.598;2022-12-10T00:03:43;-1.60;99.90
51853;DHT22;37894;53.172;6.598;2022-12-10T00:06:12;-1.80;99.90
51853;DHT22;37894;53.172;6.598;2022-12-10T00:08:38;-1.60;99.90
51853;DHT22;37894;53.172;6.598;2022-12-10T00:11:05;-2.40;99.90
51853;DHT22;37894;53.172;6.598;2022-12-10T00:13:33;-1.60;99.90
51853;DHT22;37894;53.172;6.598;2022-12-10T00:15:59;-1.60;99.90
51853;DHT22;37894;53.172;6.598;2022-12-10T00:20:51;-1.10;99.90
51853;DHT22;37894;53.172;6.598;2022-12-10T00:23:17;-1.70;99.90
51853;DHT22;37894;53.172;6.598;2022-12-10T00:28:08;-1.80;99.90
51853;DHT22;37894;53.172;6.598;2022-12-10T00:30:34;-1.60;99.90
51853;DHT22;37894;53.172;6.598;2022-12-10T00:33:00;-1.90;99.90
51853;DHT22;37894;53.172;6.598;2022-12-10T00:37:52;-2.00;99.90
51853;DHT22;37894;53.172;6.598;2022-12-10T00:40:17;-1.70;99.90
51853;DHT22;37894;53.172;6.598;2022-12-10T00:50:01;-1.20;99.90
51853;DHT22;37894;53.172;6.598;2022-12-10T00:52:27;-1.80;99.90
51853;DHT22;37894;53.172;6.598;2022-12-10T00:54:53;-0.80;99.90
51853;DHT22;37894;53.172;6.598;2022-12-10T00:57:18;-1.20;99.90
51853;DHT22;37894;53.172;6.598;2022-12-10T00:59:44;-1.70;99.90
51853;DHT22;37894;53.172;6.598;2022-12-10T01:02:10;-1.80;99.90
51853;DHT22;37894;53.172;6.598;2022-12-10T01:04:35;-1.90;99.90
51853;DHT22;37894;53.172;6.598;2022-12-10T01:07:01;-1.30;99.90
51853;DHT22;37894;53.172;6.598;2022-12-10T01:09:29;-1.90;99.90
51853;DHT22;37894;53.172;6.598;2022-12-10T01:11:56;-1.30;99.90
51853;DHT22;37894;53.172;6.598;2022-12-10T01:14:30;-1.80;99.90
51853;DHT22;37894;53.172;6.598;2022-12-10T01:16:58;-0.90;99.90
51853;DHT22;37894;53.172;6.598;2022-12-10T01:19:24;-1.70;99.90
51853;DHT22;37894;53.172;6.598;2022-12-10T01:21:52;-1.90;99.90
51853;DHT22;37894;53.172;6.598;2022-12-10T01:24:19;-1.90;99.90
51853;DHT22;37894;53.172;6.598;2022-12-10T01:29:14;-1.90;99.90
51853;DHT22;37894;53.172;6.598;2022-12-10T01:31:40;-2.30;99.90
51853;DHT22;37894;53.172;6.598;2022-12-10T01:34:09;-1.80;99.90
51853;DHT22;37894;53.172;6.598;2022-12-10T01:36:39;-1.90;99.90
51853;DHT22;37894;53.172;6.598;2022-12-10T01:39:06;-1.80;99.90
51853;DHT22;37894;53.172;6.598;2022-12-10T01:41:38;-2.40;99.90
51853;DHT22;37894;53.172;6.598;2022-12-10T01:46:41;-1.70;99.90
51853;DHT22;37894;53.172;6.598;2022-12-10T01:49:14;-1.90;99.90
51853;DHT22;37894;53.172;6.598;2022-12-10T01:51:40;-1.90;99.90
51853;DHT22;37894;53.172;6.598;2022-12-10T01:54:10;-2.00;99.90
51853;DHT22;37894;53.172;6.598;2022-12-10T01:56:40;-1.90;99.90
51853;DHT22;37894;53.172;6.598;2022-12-10T01:59:06;-1.20;99.90
51853;DHT22;37894;53.172;6.598;2022-12-10T02:06:59;-2.00;99.90
51853;DHT22;37894;53.172;6.598;2022-12-10T02:09:38;-2.00;99.90
51853;DHT22;37894;53.172;6.598;2022-12-10T02:14:57;-2.70;99.90
51853;DHT22;37894;53.172;6.598;2022-12-10T02:17:46;-2.10;99.90
51853;DHT22;37894;53.172;6.598;2022-12-10T02:22:46;-2.00;99.90
51853;DHT22;37894;53.172;6.598;2022-12-10T02:25:16;-2.10;99.90
51853;DHT22;37894;53.172;6.598;2022-12-10T02:30:22;-2.00;99.90
51853;DHT22;37894;53.172;6.598;2022-12-10T02:32:48;-2.20;99.90
51853;DHT22;37894;53.172;6.598;2022-12-10T02:35:25;-2.10;99.90
51853;DHT22;37894;53.172;6.598;2022-12-10T02:37:56;-2.00;99.90
51853;DHT22;37894;53.172;6.598;2022-12-10T02:40:26;-2.20;99.90
51853;DHT22;37894;53.172;6.598;2022-12-10T02:42:55;-1.60;99.90
51853;DHT22;37894;53.172;6.598;2022-12-10T02:45:23;-2.20;99.90
51853;DHT22;37894;53.172;6.598;2022-12-10T02:47:51;-2.30;99.90
51853;DHT22;37894;53.172;6.598;2022-12-10T02:50:19;-3.30;99.90
51853;DHT22;37894;53.172;6.598;2022-12-10T02:52:46;-1.90;99.90
51853;DHT22;37894;53.172;6.598;2022-12-10T02:55:13;-2.00;99.90
51853;DHT22;37894;53.172;6.598;2022-12-10T03:00:19;-2.00;99.90
51853;DHT22;37894;53.172;6.598;2022-12-10T03:08:17;-2.10;99.90
51853;DHT22;37894;53.172;6.598;2022-12-10T03:13:18;-2.30;99.90
51853;DHT22;37894;53.172;6.598;2022-12-10T03:15:46;-2.10;99.90
51853;DHT22;37894;53.172;6.598;2022-12-10T03:18:15;-2.10;99.90
51853;DHT22;37894;53.172;6.598;2022-12-10T03:20:44;-2.00;99.90
51853;DHT22;37894;53.172;6.598;2022-12-10T03:23:15;-2.00;99.90
51853;DHT22;37894;53.172;6.598;2022-12-10T03:25:43;-2.30;99.90
51853;DHT22;37894;53.172;6.598;2022-12-10T03:28:10;-1.90;99.90
51853;DHT22;37894;53.172;6.598;2022-12-10T03:30:37;-2.10;99.90
51853;DHT22;37894;53.172;6.598;2022-12-10T03:33:05;-1.90;99.90
51853;DHT22;37894;53.172;6.598;2022-12-10T03:35:31;-2.00;99.90
51853;DHT22;37894;53.172;6.598;2022-12-10T03:37:57;-2.20;99.90
51853;DHT22;37894;53.172;6.598;2022-12-10T03:40:24;-2.10;99.90
51853;DHT22;37894;53.172;6.598;2022-12-10T03:42:50;-2.80;99.90
51853;DHT22;37894;53.172;6.598;2022-12-10T03:45:16;-2.30;99.90
51853;DHT22;37894;53.172;6.598;2022-12-10T03:47:41;-2.10;99.90
51853;DHT22;37894;53.172;6.598;2022-12-10T03:52:34;-2.30;99.90
51853;DHT22;37894;53.172;6.598;2022-12-10T03:55:00;-1.70;99.90
51853;DHT22;37894;53.172;6.598;2022-12-10T03:57:26;-2.20;99.90
51853;DHT22;37894;53.172;6.598;2022-12-10T04:02:18;-2.60;99.90
51853;DHT22;37894;53.172;6.598;2022-12-10T04:04:43;-3.20;99.90
51853;DHT22;37894;53.172;6.598;2022-12-10T04:07:09;-2.10;99.90
51853;DHT22;37894;53.172;6.598;2022-12-10T04:09:35;-2.00;99.90
51853;DHT22;37894;53.172;6.598;2022-12-10T04:12:01;-1.30;99.90
51853;DHT22;37894;53.172;6.598;2022-12-10T04:14:27;-2.00;99.90
51853;DHT22;37894;53.172;6.598;2022-12-10T04:17:12;-2.10;99.90
51853;DHT22;37894;53.172;6.598;2022-12-10T04:19:38;-2.10;99.90
51853;DHT22;37894;53.172;6.598;2022-12-10T04:22:04;-2.40;99.90
51853;DHT22;37894;53.172;6.598;2022-12-10T04:24:48;-3.00;99.90
51853;DHT22;37894;53.172;6.598;2022-12-10T04:30:18;-2.30;99.90
51853;DHT22;37894;53.172;6.598;2022-12-10T04:32:44;-1.50;99.90
51853;DHT22;37894;53.172;6.598;2022-12-10T04:35:10;-2.40;99.90
51853;DHT22;37894;53.172;6.598;2022-12-10T04:37:36;-1.40;99.90
51853;DHT22;37894;53.172;6.598;2022-12-10T04:40:02;-1.50;99.90
51853;DHT22;37894;53.172;6.598;2022-12-10T04:44:53;-3.00;99.90
51853;DHT22;37894;53.172;6.598;2022-12-10T04:49:45;-1.70;99.90
51853;DHT22;37894;53.172;6.598;2022-12-10T04:52:13;-1.50;99.90
51853;DHT22;37894;53.172;6.598;2022-12-10T04:54:40;-2.40;99.90
51853;DHT22;37894;53.172;6.598;2022-12-10T04:57:06;-2.80;99.90
51853;DHT22;37894;53.172;6.598;2022-12-10T04:59:32;-2.60;99.90
51853;DHT22;37894;53.172;6.598;2022-12-10T05:04:24;-2.70;99.90
51853;DHT22;37894;53.172;6.598;2022-12-10T05:06:49;-3.10;99.90
51853;DHT22;37894;53.172;6.598;2022-12-10T05:09:15;-2.40;99.90
51853;DHT22;37894;53.172;6.598;2022-12-10T05:11:42;-2.70;99.90
51853;DHT22;37894;53.172;6.598;2022-12-10T05:14:11;-3.40;99.90
51853;DHT22;37894;53.172;6.598;2022-12-10T05:16:37;-2.60;99.90
51853;DHT22;37894;53.172;6.598;2022-12-10T05:24:15;-2.20;99.90
51853;DHT22;37894;53.172;6.598;2022-12-10T05:26:41;-2.20;99.90
51853;DHT22;37894;53.172;6.598;2022-12-10T05:29:08;-3.10;99.90
51853;DHT22;37894;53.172;6.598;2022-12-10T05:36:28;-2.40;99.90
51853;DHT22;37894;53.172;6.598;2022-12-10T05:38:56;-2.20;99.90
51853;DHT22;37894;53.172;6.598;2022-12-10T05:41:24;-2.30;99.90
51853;DHT22;37894;53.172;6.598;2022-12-10T05:43:52;-2.50;99.90
51853;DHT22;37894;53.172;6.598;2022-12-10T05:46:24;-1.80;99.90
51853;DHT22;37894;53.172;6.598;2022-12-10T05:48:51;-2.90;99.90
51853;DHT22;37894;53.172;6.598;2022-12-10T05:51:22;-2.10;99.90
51853;DHT22;37894;53.172;6.598;2022-12-10T05:53:49;-2.30;99.90
51853;DHT22;37894;53.172;6.598;2022-12-10T05:56:17;-1.70;99.90
51853;DHT22;37894;53.172;6.598;2022-12-10T05:58:47;-1.40;99.90
51853;DHT22;37894;53.172;6.598;2022-12-10T06:01:22;-2.10;99.90
51853;DHT22;37894;53.172;6.598;2022-12-10T06:03:48;-1.90;99.90
51853;DHT22;37894;53.172;6.598;2022-12-10T06:06:23;-2.20;99.90
51853;DHT22;37894;53.172;6.598;2022-12-10T06:08:49;-1.90;99.90
51853;DHT22;37894;53.172;6.598;2022-12-10T06:11:15;-2.10;99.90
51853;DHT22;37894;53.172;6.598;2022-12-10T06:16:11;-1.90;99.90
51853;DHT22;37894;53.172;6.598;2022-12-10T06:18:37;-1.90;99.90
51853;DHT22;37894;53.172;6.598;2022-12-10T06:21:08;-2.20;99.90
51853;DHT22;37894;53.172;6.598;2022-12-10T06:23:38;-2.20;99.90
51853;DHT22;37894;53.172;6.598;2022-12-10T06:26:10;-2.10;99.90
51853;DHT22;37894;53.172;6.598;2022-12-10T06:28:36;-2.20;99.90
51853;DHT22;37894;53.172;6.598;2022-12-10T06:38:21;-2.20;99.90
51853;DHT22;37894;53.172;6.598;2022-12-10T06:40:46;-2.10;99.90
51853;DHT22;37894;53.172;6.598;2022-12-10T06:45:42;-2.30;99.90
51853;DHT22;37894;53.172;6.598;2022-12-10T06:48:08;-2.60;99.90
51853;DHT22;37894;53.172;6.598;2022-12-10T06:53:00;-2.40;99.90
51853;DHT22;37894;53.172;6.598;2022-12-10T06:55:26;-1.00;99.90
51853;DHT22;37894;53.172;6.598;2022-12-10T07:00:19;-2.30;99.90
51853;DHT22;37894;53.172;6.598;2022-12-10T07:02:45;-2.20;99.90
51853;DHT22;37894;53.172;6.598;2022-12-10T07:05:11;-3.20;99.90
51853;DHT22;37894;53.172;6.598;2022-12-10T07:07:36;-1.10;99.90
51853;DHT22;37894;53.172;6.598;2022-12-10T07:10:03;-2.30;99.90
51853;DHT22;37894;53.172;6.598;2022-12-10T07:12:29;-2.50;99.90
51853;DHT22;37894;53.172;6.598;2022-12-10T07:17:21;-3.10;99.90
51853;DHT22;37894;53.172;6.598;2022-12-10T07:19:47;-2.20;99.90
51853;DHT22;37894;53.172;6.598;2022-12-10T07:22:12;-1.80;99.90
51853;DHT22;37894;53.172;6.598;2022-12-10T07:24:38;-2.40;99.90
51853;DHT22;37894;53.172;6.598;2022-12-10T07:27:05;-2.40;99.90
51853;DHT22;37894;53.172;6.598;2022-12-10T07:29:31;-2.30;99.90
51853;DHT22;37894;53.172;6.598;2022-12-10T07:34:23;-2.20;99.90
51853;DHT22;37894;53.172;6.598;2022-12-10T07:36:48;-2.40;99.90
51853;DHT22;37894;53.172;6.598;2022-12-10T07:41:52;-3.30;99.90
51853;DHT22;37894;53.172;6.598;2022-12-10T07:44:23;-2.40;99.90
51853;DHT22;37894;53.172;6.598;2022-12-10T07:46:50;-2.40;99.90
51853;DHT22;37894;53.172;6.598;2022-12-10T07:49:16;-2.30;99.90
51853;DHT22;37894;53.172;6.598;2022-12-10T07:51:49;-2.50;99.90
51853;DHT22;37894;53.172;6.598;2022-12-10T07:54:16;-2.90;99.90
51853;DHT22;37894;53.172;6.598;2022-12-10T07:59:08;-2.10;99.90
51853;DHT22;37894;53.172;6.598;2022-12-10T08:01:35;-2.50;99.90
51853;DHT22;37894;53.172;6.598;2022-12-10T08:04:01;-3.10;99.90
51853;DHT22;37894;53.172;6.598;2022-12-10T08:06:28;-2.30;99.90
51853;DHT22;37894;53.172;6.598;2022-12-10T08:08:53;-2.20;99.90
51853;DHT22;37894;53.172;6.598;2022-12-10T08:11:21;-1.60;99.90
51853;DHT22;37894;53.172;6.598;2022-12-10T08:13:47;-2.10;99.90
51853;DHT22;37894;53.172;6.598;2022-12-10T08:16:19;-2.70;99.90
51853;DHT22;37894;53.172;6.598;2022-12-10T08:18:46;-3.30;99.90
51853;DHT22;37894;53.172;6.598;2022-12-10T08:21:15;-2.30;99.90
51853;DHT22;37894;53.172;6.598;2022-12-10T08:23:42;-2.20;99.90
51853;DHT22;37894;53.172;6.598;2022-12-10T08:26:10;-2.30;99.90
51853;DHT22;37894;53.172;6.598;2022-12-10T08:28:36;-2.20;99.90
51853;DHT22;37894;53.172;6.598;2022-12-10T08:31:03;-2.40;99.90
51853;DHT22;37894;53.172;6.598;2022-12-10T08:33:29;-3.00;99.90
51853;DHT22;37894;53.172;6.598;2022-12-10T08:35:58;-2.40;99.90
51853;DHT22;37894;53.172;6.598;2022-12-10T08:38:25;-2.30;99.90
51853;DHT22;37894;53.172;6.598;2022-12-10T08:40:51;-2.20;99.90
51853;DHT22;37894;53.172;6.598;2022-12-10T08:45:42;-2.20;99.90
51853;DHT22;37894;53.172;6.598;2022-12-10T08:48:08;-2.30;99.90
51853;DHT22;37894;53.172;6.598;2022-12-10T08:50:35;-2.30;99.90
51853;DHT22;37894;53.172;6.598;2022-12-10T08:53:01;-2.70;99.90
51853;DHT22;37894;53.172;6.598;2022-12-10T08:55:27;-1.90;99.90
51853;DHT22;37894;53.172;6.598;2022-12-10T08:57:52;-2.10;99.90
51853;DHT22;37894;53.172;6.598;2022-12-10T09:00:18;-2.20;99.90
51853;DHT22;37894;53.172;6.598;2022-12-10T09:07:37;-2.10;99.90
51853;DHT22;37894;53.172;6.598;2022-12-10T09:10:03;-2.10;99.90
51853;DHT22;37894;53.172;6.598;2022-12-10T09:12:29;-2.90;99.90
51853;DHT22;37894;53.172;6.598;2022-12-10T09:14:54;-2.10;99.90
51853;DHT22;37894;53.172;6.598;2022-12-10T09:17:21;-2.10;99.90
51853;DHT22;37894;53.172;6.598;2022-12-10T09:19:47;-2.00;99.90
51853;DHT22;37894;53.172;6.598;2022-12-10T09:22:13;-2.20;99.90
51853;DHT22;37894;53.172;6.598;2022-12-10T09:27:05;-1.20;99.90
51853;DHT22;37894;53.172;6.598;2022-12-10T09:29:30;-2.20;99.90
51853;DHT22;37894;53.172;6.598;2022-12-10T09:31:56;-2.10;99.90
51853;DHT22;37894;53.172;6.598;2022-12-10T09:34:22;-1.30;99.90
51853;DHT22;37894;53.172;6.598;2022-12-10T09:36:48;-1.90;99.90
51853;DHT22;37894;53.172;6.598;2022-12-10T09:39:14;-2.10;99.90
51853;DHT22;37894;53.172;6.598;2022-12-10T09:46:54;-2.60;99.90
51853;DHT22;37894;53.172;6.598;2022-12-10T09:52:03;-2.80;99.90
51853;DHT22;37894;53.172;6.598;2022-12-10T09:54:33;-2.10;99.90
51853;DHT22;37894;53.172;6.598;2022-12-10T09:57:00;-1.40;99.90
51853;DHT22;37894;53.172;6.598;2022-12-10T09:59:34;-1.90;99.90
51853;DHT22;37894;53.172;6.598;2022-12-10T10:04:42;-1.20;99.90
51853;DHT22;37894;53.172;6.598;2022-12-10T10:07:20;-2.00;99.90
51853;DHT22;37894;53.172;6.598;2022-12-10T10:12:14;-2.10;99.90
51853;DHT22;37894;53.172;6.598;2022-12-10T10:14:44;-1.80;99.90
51853;DHT22;37894;53.172;6.598;2022-12-10T10:17:30;-1.60;99.90
51853;DHT22;37894;53.172;6.598;2022-12-10T10:22:25;-1.00;99.90
51853;DHT22;37894;53.172;6.598;2022-12-10T10:24:52;-1.60;99.90
51853;DHT22;37894;53.172;6.598;2022-12-10T10:27:26;-1.70;99.90
51853;DHT22;37894;53.172;6.598;2022-12-10T10:29:54;-1.70;99.90
51853;DHT22;37894;53.172;6.598;2022-12-10T10:32:26;-1.70;99.90
51853;DHT22;37894;53.172;6.598;2022-12-10T10:34:56;-0.50;99.90
51853;DHT22;37894;53.172;6.598;2022-12-10T10:37:39;-1.60;99.90
51853;DHT22;37894;53.172;6.598;2022-12-10T10:40:06;-1.60;99.90
51853;DHT22;37894;53.172;6.598;2022-12-10T10:42:40;-0.70;99.90
51853;DHT22;37894;53.172;6.598;2022-12-10T10:45:42;-2.00;99.90
51853;DHT22;37894;53.172;6.598;2022-12-10T10:48:17;-1.30;99.90
51853;DHT22;37894;53.172;6.598;2022-12-10T10:50:55;-1.70;99.90
51853;DHT22;37894;53.172;6.598;2022-12-10T10:59:06;-0.40;99.90
51853;DHT22;37894;53.172;6.598;2022-12-10T11:04:16;-1.30;99.90
51853;DHT22;37894;53.172;6.598;2022-12-10T11:06:43;-1.20;99.90
51853;DHT22;37894;53.172;6.598;2022-12-10T11:09:26;-1.10;99.90
51853;DHT22;37894;53.172;6.598;2022-12-10T11:11:59;-1.10;99.90
51853;DHT22;37894;53.172;6.598;2022-12-10T11:14:45;-1.00;99.90
51853;DHT22;37894;53.172;6.598;2022-12-10T11:17:19;-1.10;99.90
51853;DHT22;37894;53.172;6.598;2022-12-10T11:20:01;-1.00;99.90
51853;DHT22;37894;53.172;6.598;2022-12-10T11:22:30;-1.20;99.90
51853;DHT22;37894;53.172;6.598;2022-12-10T11:24:57;-1.10;99.90
51853;DHT22;37894;53.172;6.598;2022-12-10T11:30:22;-0.50;99.90
51853;DHT22;37894;53.172;6.598;2022-12-10T11:35:24;-1.20;99.90
51853;DHT22;37894;53.172;6.598;2022-12-10T11:46:30;-1.00;99.90
51853;DHT22;37894;53.172;6.598;2022-12-10T11:49:24;-1.00;99.90
51853;DHT22;37894;53.172;6.598;2022-12-10T11:55:11;-1.70;99.90
51853;DHT22;37894;53.172;6.598;2022-12-10T12:08:59;-1.00;99.90
51853;DHT22;37894;53.172;6.598;2022-12-10T12:11:44;-1.10;99.90
51853;DHT22;37894;53.172;6.598;2022-12-10T12:14:24;-0.90;99.90
51853;DHT22;37894;53.172;6.598;2022-12-10T12:19:46;-0.90;99.90
51853;DHT22;37894;53.172;6.598;2022-12-10T12:22:29;-0.80;99.90
51853;DHT22;37894;53.172;6.598;2022-12-10T12:25:14;-1.00;99.90
51853;DHT22;37894;53.172;6.598;2022-12-10T12:27:46;-0.90;99.90
51853;DHT22;37894;53.172;6.598;2022-12-10T12:30:16;-0.90;99.90
51853;DHT22;37894;53.172;6.598;2022-12-10T12:38:23;-0.80;99.90
51853;DHT22;37894;53.172;6.598;2022-12-10T12:40:58;-0.90;99.90
51853;DHT22;37894;53.172;6.598;2022-12-10T12:51:23;-1.00;99.90
51853;DHT22;37894;53.172;6.598;2022-12-10T12:53:52;-1.50;99.90
51853;DHT22;37894;53.172;6.598;2022-12-10T12:59:36;-0.90;99.90
51853;DHT22;37894;53.172;6.598;2022-12-10T13:02:22;-0.90;99.90
51853;DHT22;37894;53.172;6.598;2022-12-10T13:04:51;-0.50;99.90
51853;DHT22;37894;53.172;6.598;2022-12-10T13:09:51;0.30;99.90
51853;DHT22;37894;53.172;6.598;2022-12-10T13:12:27;-0.90;99.90
51853;DHT22;37894;53.172;6.598;2022-12-10T13:15:11;-0.90;99.90
51853;DHT22;37894;53.172;6.598;2022-12-10T13:17:39;-0.20;99.90
51853;DHT22;37894;53.172;6.598;2022-12-10T13:22:59;-0.70;99.90
51853;DHT22;37894;53.172;6.598;2022-12-10T13:39:34;-0.90;99.90
51853;DHT22;37894;53.172;6.598;2022-12-10T13:47:51;-0.90;99.90
51853;DHT22;37894;53.172;6.598;2022-12-10T13:53:13;-0.80;99.90
51853;DHT22;37894;53.172;6.598;2022-12-10T14:09:32;-0.30;99.90
51853;DHT22;37894;53.172;6.598;2022-12-10T14:12:07;-0.50;99.90
51853;DHT22;37894;53.172;6.598;2022-12-10T14:14:41;-0.50;99.90
51853;DHT22;37894;53.172;6.598;2022-12-10T14:17:24;-0.60;99.90
51853;DHT22;37894;53.172;6.598;2022-12-10T14:19:53;-0.60;99.90
51853;DHT22;37894;53.172;6.598;2022-12-10T14:24:50;-0.50;99.90
51853;DHT22;37894;53.172;6.598;2022-12-10T14:27:25;0.20;99.90
51853;DHT22;37894;53.172;6.598;2022-12-10T14:30:20;-0.50;99.90
51853;DHT22;37894;53.172;6.598;2022-12-10T14:32:48;-0.50;99.90
51853;DHT22;37894;53.172;6.598;2022-12-10T14:35:20;-0.60;99.90
51853;DHT22;37894;53.172;6.598;2022-12-10T14:37:48;-1.50;99.90
51853;DHT22;37894;53.172;6.598;2022-12-10T14:40:43;-0.60;99.90
51853;DHT22;37894;53.172;6.598;2022-12-10T14:43:17;-0.60;99.90
51853;DHT22;37894;53.172;6.598;2022-12-10T14:48:17;-0.70;99.90
51853;DHT22;37894;53.172;6.598;2022-12-10T14:50:44;-0.70;99.90
51853;DHT22;37894;53.172;6.598;2022-12-10T14:53:16;-0.70;99.90
51853;DHT22;37894;53.172;6.598;2022-12-10T14:55:48;-0.60;99.90
51853;DHT22;37894;53.172;6.598;2022-12-10T14:58:21;-0.60;99.90
51853;DHT22;37894;53.172;6.598;2022-12-10T15:03:26;-0.60;99.90
51853;DHT22;37894;53.172;6.598;2022-12-10T15:05:58;-0.70;99.90
51853;DHT22;37894;53.172;6.598;2022-12-10T15:08:26;-0.60;99.90
51853;DHT22;37894;53.172;6.598;2022-12-10T15:10:55;-0.50;99.90
51853;DHT22;37894;53.172;6.598;2022-12-10T15:15:55;0.10;99.90
51853;DHT22;37894;53.172;6.598;2022-12-10T15:18:29;0.10;99.90
51853;DHT22;37894;53.172;6.598;2022-12-10T15:21:14;-0.60;99.90
51853;DHT22;37894;53.172;6.598;2022-12-10T15:23:42;-0.70;99.90
51853;DHT22;37894;53.172;6.598;2022-12-10T15:28:49;-0.50;99.90
51853;DHT22;37894;53.172;6.598;2022-12-10T15:34:11;-0.50;99.90
51853;DHT22;37894;53.172;6.598;2022-12-10T15:36:55;-0.70;99.90
51853;DHT22;37894;53.172;6.598;2022-12-10T15:41:56;-0.60;99.90
51853;DHT22;37894;53.172;6.598;2022-12-10T15:44:41;-0.50;99.90
51853;DHT22;37894;53.172;6.598;2022-12-10T15:47:26;-0.70;99.90
51853;DHT22;37894;53.172;6.598;2022-12-10T15:49:54;-0.70;99.90
51853;DHT22;37894;53.172;6.598;2022-12-10T15:52:22;-0.60;99.90
51853;DHT22;37894;53.172;6.598;2022-12-10T15:54:51;-0.70;99.90
51853;DHT22;37894;53.172;6.598;2022-12-10T15:59:44;-0.70;99.90
51853;DHT22;37894;53.172;6.598;2022-12-10T16:02:30;-0.70;99.90
51853;DHT22;37894;53.172;6.598;2022-12-10T16:05:02;-0.70;99.90
51853;DHT22;37894;53.172;6.598;2022-12-10T16:09:54;-0.60;99.90
51853;DHT22;37894;53.172;6.598;2022-12-10T16:12:19;-1.40;99.90
51853;DHT22;37894;53.172;6.598;2022-12-10T16:14:51;-0.80;99.90
51853;DHT22;37894;53.172;6.598;2022-12-10T16:22:10;0.40;99.90
51853;DHT22;37894;53.172;6.598;2022-12-10T16:24:36;-0.80;99.90
51853;DHT22;37894;53.172;6.598;2022-12-10T16:27:10;-0.60;99.90
51853;DHT22;37894;53.172;6.598;2022-12-10T16:34:28;-0.80;99.90
51853;DHT22;37894;53.172;6.598;2022-12-10T16:39:21;-0.50;99.90
51853;DHT22;37894;53.172;6.598;2022-12-10T16:41:53;-0.20;99.90
51853;DHT22;37894;53.172;6.598;2022-12-10T16:44:19;-0.70;99.90
51853;DHT22;37894;53.172;6.598;2022-12-10T16:46:45;-0.60;99.90
51853;DHT22;37894;53.172;6.598;2022-12-10T16:49:11;-0.40;99.90
51853;DHT22;37894;53.172;6.598;2022-12-10T16:51:37;-0.90;99.90
51853;DHT22;37894;53.172;6.598;2022-12-10T16:54:03;-0.50;99.90
51853;DHT22;37894;53.172;6.598;2022-12-10T16:56:30;-0.60;99.90
51853;DHT22;37894;53.172;6.598;2022-12-10T16:58:56;-0.60;99.90
51853;DHT22;37894;53.172;6.598;2022-12-10T17:01:27;-0.60;99.90
51853;DHT22;37894;53.172;6.598;2022-12-10T17:03:53;-0.60;99.90
51853;DHT22;37894;53.172;6.598;2022-12-10T17:06:20;-0.60;99.90
51853;DHT22;37894;53.172;6.598;2022-12-10T17:08:46;-1.10;99.90
51853;DHT22;37894;53.172;6.598;2022-12-10T17:11:24;-0.70;99.90
51853;DHT22;37894;53.172;6.598;2022-12-10T17:14:20;1.30;99.90
51853;DHT22;37894;53.172;6.598;2022-12-10T17:16:46;-0.70;99.90
51853;DHT22;37894;53.172;6.598;2022-12-10T17:19:12;-1.30;99.90
51853;DHT22;37894;53.172;6.598;2022-12-10T17:21:38;-0.30;99.90
51853;DHT22;37894;53.172;6.598;2022-12-10T17:26:32;0.30;99.90
51853;DHT22;37894;53.172;6.598;2022-12-10T17:29:10;-0.90;99.90
51853;DHT22;37894;53.172;6.598;2022-12-10T17:31:36;-0.70;99.90
51853;DHT22;37894;53.172;6.598;2022-12-10T17:34:02;-0.60;99.90
51853;DHT22;37894;53.172;6.598;2022-12-10T17:36:28;-0.80;99.90
51853;DHT22;37894;53.172;6.598;2022-12-10T17:43:45;-0.70;99.90
51853;DHT22;37894;53.172;6.598;2022-12-10T17:46:13;-0.90;99.90
51853;DHT22;37894;53.172;6.598;2022-12-10T17:48:39;-0.80;99.90
51853;DHT22;37894;53.172;6.598;2022-12-10T17:51:05;-0.80;99.90
51853;DHT22;37894;53.172;6.598;2022-12-10T17:53:31;0.20;99.90
51853;DHT22;37894;53.172;6.598;2022-12-10T17:55:58;-1.10;99.90
51853;DHT22;37894;53.172;6.598;2022-12-10T17:58:26;-0.80;99.90
51853;DHT22;37894;53.172;6.598;2022-12-10T18:00:52;-0.90;99.90
51853;DHT22;37894;53.172;6.598;2022-12-10T18:03:18;-0.80;99.90
51853;DHT22;37894;53.172;6.598;2022-12-10T18:05:44;-0.90;99.90
51853;DHT22;37894;53.172;6.598;2022-12-10T18:08:15;-0.90;99.90
51853;DHT22;37894;53.172;6.598;2022-12-10T18:10:43;-0.90;99.90
51853;DHT22;37894;53.172;6.598;2022-12-10T18:13:09;-0.80;99.90
51853;DHT22;37894;53.172;6.598;2022-12-10T18:15:35;-0.90;99.90
51853;DHT22;37894;53.172;6.598;2022-12-10T18:18:01;-0.90;99.90
51853;DHT22;37894;53.172;6.598;2022-12-10T18:20:34;-1.40;99.90
51853;DHT22;37894;53.172;6.598;2022-12-10T18:23:01;-1.20;99.90
51853;DHT22;37894;53.172;6.598;2022-12-10T18:25:28;-0.90;99.90
51853;DHT22;37894;53.172;6.598;2022-12-10T18:27:56;-1.20;99.90
51853;DHT22;37894;53.172;6.598;2022-12-10T18:30:23;-0.60;99.90
51853;DHT22;37894;53.172;6.598;2022-12-10T18:32:50;-1.60;99.90
51853;DHT22;37894;53.172;6.598;2022-12-10T18:35:16;-0.80;99.90
51853;DHT22;37894;53.172;6.598;2022-12-10T18:37:42;0.20;99.90
51853;DHT22;37894;53.172;6.598;2022-12-10T18:40:15;-0.90;99.90
51853;DHT22;37894;53.172;6.598;2022-12-10T18:42:41;-0.80;99.90
51853;DHT22;37894;53.172;6.598;2022-12-10T18:45:07;-0.20;99.90
51853;DHT22;37894;53.172;6.598;2022-12-10T18:47:33;-0.80;99.90
51853;DHT22;37894;53.172;6.598;2022-12-10T18:52:25;-1.30;99.90
51853;DHT22;37894;53.172;6.598;2022-12-10T18:54:51;0.00;99.90
51853;DHT22;37894;53.172;6.598;2022-12-10T18:57:18;-0.90;99.90
51853;DHT22;37894;53.172;6.598;2022-12-10T19:02:10;0.00;99.90
51853;DHT22;37894;53.172;6.598;2022-12-10T19:04:37;-1.00;99.90
51853;DHT22;37894;53.172;6.598;2022-12-10T19:09:29;-0.90;99.90
51853;DHT22;37894;53.172;6.598;2022-12-10T19:11:57;-0.90;99.90
51853;DHT22;37894;53.172;6.598;2022-12-10T19:14:23;0.10;99.90
51853;DHT22;37894;53.172;6.598;2022-12-10T19:16:49;-0.90;99.90
51853;DHT22;37894;53.172;6.598;2022-12-10T19:19:16;-1.00;99.90
51853;DHT22;37894;53.172;6.598;2022-12-10T19:21:43;-1.50;99.90
51853;DHT22;37894;53.172;6.598;2022-12-10T19:24:09;-1.70;99.90
51853;DHT22;37894;53.172;6.598;2022-12-10T19:26:40;-1.00;99.90
51853;DHT22;37894;53.172;6.598;2022-12-10T19:29:15;-0.90;99.90
51853;DHT22;37894;53.172;6.598;2022-12-10T19:31:42;-1.20;99.90
51853;DHT22;37894;53.172;6.598;2022-12-10T19:34:08;-1.80;99.90
51853;DHT22;37894;53.172;6.598;2022-12-10T19:39:01;-1.10;99.90
51853;DHT22;37894;53.172;6.598;2022-12-10T19:46:24;-1.10;99.90
51853;DHT22;37894;53.172;6.598;2022-12-10T19:51:18;-1.10;99.90
51853;DHT22;37894;53.172;6.598;2022-12-10T19:53:44;-1.00;99.90
51853;DHT22;37894;53.172;6.598;2022-12-10T19:58:50;-1.10;99.90
51853;DHT22;37894;53.172;6.598;2022-12-10T20:01:16;-1.00;99.90
51853;DHT22;37894;53.172;6.598;2022-12-10T20:03:42;-1.70;99.90
51853;DHT22;37894;53.172;6.598;2022-12-10T20:06:20;-1.00;99.90
51853;DHT22;37894;53.172;6.598;2022-12-10T20:13:40;-1.10;99.90
51853;DHT22;37894;53.172;6.598;2022-12-10T20:16:19;-1.20;99.90
51853;DHT22;37894;53.172;6.598;2022-12-10T20:18:46;-1.30;99.90
51853;DHT22;37894;53.172;6.598;2022-12-10T20:21:12;-1.10;99.90
51853;DHT22;37894;53.172;6.598;2022-12-10T20:23:38;-1.10;99.90
51853;DHT22;37894;53.172;6.598;2022-12-10T20:28:44;-1.60;99.90
51853;DHT22;37894;53.172;6.598;2022-12-10T20:31:10;-1.20;99.90
51853;DHT22;37894;53.172;6.598;2022-12-10T20:33:37;-1.20;99.90